sensor_id;sensor_type;location;lat;lon;timestamp;pressure;altitude;pressure_sealevel;temperature;humidity
43161;BME280;40968;52.342;5.528;2022-07-31T00:02:02;101823.81;;;21.90;49.08
43161;BME280;40968;52.342;5.528;2022-07-31T00:04:29;101816.44;;;21.82;49.19
43161;BME280;40968;52.342;5.528;2022-07-31T00:06:56;101557.00;;;20.14;49.41
43161;BME280;40968;52.342;5.528;2022-07-31T00:09:22;101760.34;;;21.37;49.63
43161;BME280;40968;52.342;5.528;2022-07-31T00:11:49;101813.31;;;21.61;49.92
43161;BME280;40968;52.342;5.528;2022-07-31T00:14:15;101674.63;;;20.70;49.78
43161;BME280;40968;52.342;5.528;2022-07-31T00:16:42;101726.28;;;21.07;49.97
43161;BME280;40968;52.342;5.528;2022-07-31T00:19:10;101809.47;;;21.53;50.24
43161;BME280;40968;52.342;5.528;2022-07-31T00:21:36;101796.44;;;21.39;50.16
43161;BME280;40968;52.342;5.528;2022-07-31T00:24:03;101811.53;;;21.51;50.22
43161;BME280;40968;52.342;5.528;2022-07-31T00:26:30;101814.56;;;21.48;50.42
43161;BME280;40968;52.342;5.528;2022-07-31T00:28:57;101800.91;;;21.40;50.86
43161;BME280;40968;52.342;5.528;2022-07-31T00:31:23;101779.00;;;21.24;51.02
43161;BME280;40968;52.342;5.528;2022-07-31T00:33:50;101631.69;;;20.38;50.89
43161;BME280;40968;52.342;5.528;2022-07-31T00:36:17;101804.25;;;21.34;51.00
43161;BME280;40968;52.342;5.528;2022-07-31T00:38:44;101725.34;;;20.90;51.31
43161;BME280;40968;52.342;5.528;2022-07-31T00:41:11;101743.28;;;21.00;51.28
43161;BME280;40968;52.342;5.528;2022-07-31T00:43:37;101655.94;;;20.49;51.60
43161;BME280;40968;52.342;5.528;2022-07-31T00:46:04;101784.81;;;21.29;51.99
43161;BME280;40968;52.342;5.528;2022-07-31T00:48:31;101782.25;;;21.27;52.09
43161;BME280;40968;52.342;5.528;2022-07-31T00:50:58;101703.84;;;20.86;51.80
43161;BME280;40968;52.342;5.528;2022-07-31T00:53:26;101771.88;;;21.31;51.78
43161;BME280;40968;52.342;5.528;2022-07-31T00:55:53;101722.50;;;21.08;51.63
43161;BME280;40968;52.342;5.528;2022-07-31T00:58:21;101659.41;;;20.60;51.31
43161;BME280;40968;52.342;5.528;2022-07-31T01:00:48;101759.59;;;21.27;51.36
43161;BME280;40968;52.342;5.528;2022-07-31T01:03:14;101752.59;;;21.24;51.23
43161;BME280;40968;52.342;5.528;2022-07-31T01:05:42;101478.00;;;19.53;51.13
43161;BME280;40968;52.342;5.528;2022-07-31T01:08:09;101745.97;;;21.27;51.50
43161;BME280;40968;52.342;5.528;2022-07-31T01:10:43;101700.50;;;21.01;51.53
43161;BME280;40968;52.342;5.528;2022-07-31T01:13:21;101737.91;;;21.17;51.79
43161;BME280;40968;52.342;5.528;2022-07-31T01:15:51;101743.69;;;21.14;51.42
43161;BME280;40968;52.342;5.528;2022-07-31T01:18:20;101682.03;;;20.60;51.87
43161;BME280;40968;52.342;5.528;2022-07-31T01:20:48;101698.41;;;20.86;51.97
43161;BME280;40968;52.342;5.528;2022-07-31T01:23:21;101710.38;;;20.94;51.79
43161;BME280;40968;52.342;5.528;2022-07-31T01:25:58;101626.31;;;20.46;52.22
43161;BME280;40968;52.342;5.528;2022-07-31T01:28:43;101734.97;;;21.10;52.44
43161;BME280;40968;52.342;5.528;2022-07-31T01:31:15;101752.34;;;21.09;52.35
43161;BME280;40968;52.342;5.528;2022-07-31T01:33:47;101702.66;;;20.89;52.29
43161;BME280;40968;52.342;5.528;2022-07-31T01:36:19;101603.66;;;20.19;52.68
43161;BME280;40968;52.342;5.528;2022-07-31T01:38:50;101710.97;;;20.79;52.94
43161;BME280;40968;52.342;5.528;2022-07-31T01:41:23;101728.72;;;20.92;52.56
43161;BME280;40968;52.342;5.528;2022-07-31T01:43:54;101693.69;;;20.70;52.80
43161;BME280;40968;52.342;5.528;2022-07-31T01:46:24;101643.81;;;20.44;52.46
43161;BME280;40968;52.342;5.528;2022-07-31T01:48:53;101634.09;;;20.41;52.50
43161;BME280;40968;52.342;5.528;2022-07-31T01:51:21;101739.84;;;20.98;53.04
43161;BME280;40968;52.342;5.528;2022-07-31T01:53:49;101703.44;;;20.73;53.13
43161;BME280;40968;52.342;5.528;2022-07-31T01:56:17;101735.06;;;20.92;52.98
43161;BME280;40968;52.342;5.528;2022-07-31T01:58:46;101473.38;;;19.28;53.01
43161;BME280;40968;52.342;5.528;2022-07-31T02:01:15;101753.97;;;20.94;52.78
43161;BME280;40968;52.342;5.528;2022-07-31T02:03:43;101749.34;;;20.94;52.68
43161;BME280;40968;52.342;5.528;2022-07-31T02:06:11;101745.78;;;20.94;52.69
43161;BME280;40968;52.342;5.528;2022-07-31T02:08:38;101628.69;;;20.23;52.98
43161;BME280;40968;52.342;5.528;2022-07-31T02:11:05;101710.59;;;20.74;52.61
43161;BME280;40968;52.342;5.528;2022-07-31T02:13:32;101700.63;;;20.65;52.98
43161;BME280;40968;52.342;5.528;2022-07-31T02:16:01;101734.50;;;20.89;52.81
43161;BME280;40968;52.342;5.528;2022-07-31T02:18:30;101747.81;;;20.92;52.87
43161;BME280;40968;52.342;5.528;2022-07-31T02:20:57;101733.50;;;20.90;53.05
43161;BME280;40968;52.342;5.528;2022-07-31T02:23:24;101584.47;;;20.03;53.25
43161;BME280;40968;52.342;5.528;2022-07-31T02:25:51;101720.88;;;20.89;53.16
43161;BME280;40968;52.342;5.528;2022-07-31T02:28:17;101582.06;;;20.00;53.05
43161;BME280;40968;52.342;5.528;2022-07-31T02:30:46;101715.06;;;20.83;53.22
43161;BME280;40968;52.342;5.528;2022-07-31T02:33:19;101674.56;;;20.62;53.45
43161;BME280;40968;52.342;5.528;2022-07-31T02:35:49;101708.63;;;20.84;53.40
43161;BME280;40968;52.342;5.528;2022-07-31T02:38:18;101648.22;;;20.45;53.65
43161;BME280;40968;52.342;5.528;2022-07-31T02:40:46;101704.47;;;20.80;53.76
43161;BME280;40968;52.342;5.528;2022-07-31T02:43:14;101590.84;;;20.12;53.53
43161;BME280;40968;52.342;5.528;2022-07-31T02:45:41;101668.03;;;20.55;53.36
43161;BME280;40968;52.342;5.528;2022-07-31T02:48:08;101430.63;;;19.12;53.60
43161;BME280;40968;52.342;5.528;2022-07-31T02:50:36;101633.97;;;20.25;53.75
43161;BME280;40968;52.342;5.528;2022-07-31T02:53:05;101707.88;;;20.74;53.59
43161;BME280;40968;52.342;5.528;2022-07-31T02:55:32;101707.16;;;20.72;54.08
43161;BME280;40968;52.342;5.528;2022-07-31T02:58:00;101697.28;;;20.71;54.01
43161;BME280;40968;52.342;5.528;2022-07-31T03:00:27;101608.03;;;20.12;54.14
43161;BME280;40968;52.342;5.528;2022-07-31T03:02:55;101703.19;;;20.66;53.80
43161;BME280;40968;52.342;5.528;2022-07-31T03:05:22;101670.22;;;20.51;54.26
43161;BME280;40968;52.342;5.528;2022-07-31T03:07:48;101604.94;;;20.07;53.99
43161;BME280;40968;52.342;5.528;2022-07-31T03:10:16;101648.34;;;20.35;54.05
43161;BME280;40968;52.342;5.528;2022-07-31T03:12:45;101467.22;;;19.26;54.05
43161;BME280;40968;52.342;5.528;2022-07-31T03:15:14;101287.00;;;18.18;54.50
43161;BME280;40968;52.342;5.528;2022-07-31T03:17:43;101681.00;;;20.61;54.39
43161;BME280;40968;52.342;5.528;2022-07-31T03:20:11;101662.72;;;20.45;54.22
43161;BME280;40968;52.342;5.528;2022-07-31T03:22:39;101624.78;;;20.26;54.37
43161;BME280;40968;52.342;5.528;2022-07-31T03:25:07;101613.69;;;20.19;54.40
43161;BME280;40968;52.342;5.528;2022-07-31T03:27:36;101442.88;;;19.16;54.19
43161;BME280;40968;52.342;5.528;2022-07-31T03:30:04;101554.44;;;19.86;54.78
43161;BME280;40968;52.342;5.528;2022-07-31T03:32:31;101676.19;;;20.55;54.47
43161;BME280;40968;52.342;5.528;2022-07-31T03:34:59;101611.66;;;20.21;54.48
43161;BME280;40968;52.342;5.528;2022-07-31T03:37:26;101658.16;;;20.54;54.35
43161;BME280;40968;52.342;5.528;2022-07-31T03:39:52;101570.19;;;20.01;54.54
43161;BME280;40968;52.342;5.528;2022-07-31T03:42:19;101562.97;;;19.92;54.80
43161;BME280;40968;52.342;5.528;2022-07-31T03:44:48;101606.88;;;20.15;55.39
43161;BME280;40968;52.342;5.528;2022-07-31T03:47:14;101600.00;;;20.11;55.02
43161;BME280;40968;52.342;5.528;2022-07-31T03:49:41;101619.34;;;20.26;55.05
43161;BME280;40968;52.342;5.528;2022-07-31T03:52:08;101659.50;;;20.50;54.75
43161;BME280;40968;52.342;5.528;2022-07-31T03:54:35;101665.81;;;20.50;54.77
43161;BME280;40968;52.342;5.528;2022-07-31T03:57:02;101661.38;;;20.49;54.66
43161;BME280;40968;52.342;5.528;2022-07-31T03:59:30;101594.56;;;20.11;54.89
43161;BME280;40968;52.342;5.528;2022-07-31T04:02:00;101655.22;;;20.47;55.19
43161;BME280;40968;52.342;5.528;2022-07-31T04:04:27;101604.66;;;20.18;55.02
43161;BME280;40968;52.342;5.528;2022-07-31T04:06:54;101654.03;;;20.50;55.37
43161;BME280;40968;52.342;5.528;2022-07-31T04:09:20;101562.28;;;19.90;55.69
43161;BME280;40968;52.342;5.528;2022-07-31T04:11:47;101651.09;;;20.43;55.95
43161;BME280;40968;52.342;5.528;2022-07-31T04:14:13;101606.31;;;20.11;55.94
43161;BME280;40968;52.342;5.528;2022-07-31T04:16:40;101335.38;;;18.41;56.23
43161;BME280;40968;52.342;5.528;2022-07-31T04:19:08;101607.09;;;20.03;56.33
43161;BME280;40968;52.342;5.528;2022-07-31T04:21:35;101651.72;;;20.37;56.27
43161;BME280;40968;52.342;5.528;2022-07-31T04:24:02;101495.41;;;19.43;56.52
43161;BME280;40968;52.342;5.528;2022-07-31T04:26:28;101650.50;;;20.31;56.47
43161;BME280;40968;52.342;5.528;2022-07-31T04:28:55;101429.91;;;18.92;56.78
43161;BME280;40968;52.342;5.528;2022-07-31T04:31:22;101553.03;;;19.64;57.28
43161;BME280;40968;52.342;5.528;2022-07-31T04:33:48;101602.41;;;19.87;57.34
43161;BME280;40968;52.342;5.528;2022-07-31T04:36:16;101558.63;;;19.63;57.42
43161;BME280;40968;52.342;5.528;2022-07-31T04:38:43;101590.00;;;19.75;57.53
43161;BME280;40968;52.342;5.528;2022-07-31T04:41:10;101609.22;;;19.92;57.58
43161;BME280;40968;52.342;5.528;2022-07-31T04:43:36;101362.75;;;18.48;57.70
43161;BME280;40968;52.342;5.528;2022-07-31T04:46:03;101645.81;;;20.15;57.74
43161;BME280;40968;52.342;5.528;2022-07-31T04:48:29;101644.09;;;20.14;57.83
43161;BME280;40968;52.342;5.528;2022-07-31T04:50:56;101614.19;;;19.96;57.82
43161;BME280;40968;52.342;5.528;2022-07-31T04:53:24;101444.19;;;18.94;58.12
43161;BME280;40968;52.342;5.528;2022-07-31T04:55:50;101640.34;;;20.15;58.17
43161;BME280;40968;52.342;5.528;2022-07-31T04:58:31;101636.09;;;20.13;58.65
43161;BME280;40968;52.342;5.528;2022-07-31T05:00:59;101555.97;;;19.71;58.40
43161;BME280;40968;52.342;5.528;2022-07-31T05:03:26;101625.75;;;20.16;59.11
43161;BME280;40968;52.342;5.528;2022-07-31T05:05:52;101629.47;;;20.15;58.97
43161;BME280;40968;52.342;5.528;2022-07-31T05:08:19;101597.00;;;19.96;59.37
43161;BME280;40968;52.342;5.528;2022-07-31T05:10:47;101630.16;;;20.17;59.80
43161;BME280;40968;52.342;5.528;2022-07-31T05:13:31;101631.03;;;20.18;60.11
43161;BME280;40968;52.342;5.528;2022-07-31T05:15:58;101605.88;;;19.98;60.40
43161;BME280;40968;52.342;5.528;2022-07-31T05:18:24;101356.72;;;18.54;60.65
43161;BME280;40968;52.342;5.528;2022-07-31T05:20:51;101634.28;;;20.21;61.06
43161;BME280;40968;52.342;5.528;2022-07-31T05:23:18;101597.09;;;19.86;61.58
43161;BME280;40968;52.342;5.528;2022-07-31T05:25:44;101646.88;;;20.23;61.23
43161;BME280;40968;52.342;5.528;2022-07-31T05:28:12;101518.69;;;19.45;61.12
43161;BME280;40968;52.342;5.528;2022-07-31T05:30:40;101642.47;;;20.21;61.79
43161;BME280;40968;52.342;5.528;2022-07-31T05:33:06;101565.13;;;19.70;61.70
43161;BME280;40968;52.342;5.528;2022-07-31T05:35:33;101566.53;;;19.74;61.84
43161;BME280;40968;52.342;5.528;2022-07-31T05:37:59;101611.31;;;19.98;61.89
43161;BME280;40968;52.342;5.528;2022-07-31T05:40:26;101610.66;;;20.04;62.17
43161;BME280;40968;52.342;5.528;2022-07-31T05:42:53;101645.31;;;20.20;62.01
43161;BME280;40968;52.342;5.528;2022-07-31T05:45:21;101576.53;;;19.83;62.16
43161;BME280;40968;52.342;5.528;2022-07-31T05:47:47;101658.06;;;20.19;61.87
43161;BME280;40968;52.342;5.528;2022-07-31T05:50:14;101643.47;;;20.20;62.07
43161;BME280;40968;52.342;5.528;2022-07-31T05:52:42;101640.75;;;20.20;62.01
43161;BME280;40968;52.342;5.528;2022-07-31T05:55:08;101579.75;;;19.87;62.37
43161;BME280;40968;52.342;5.528;2022-07-31T05:57:35;101638.88;;;20.21;62.25
43161;BME280;40968;52.342;5.528;2022-07-31T06:00:02;101639.75;;;20.21;62.42
43161;BME280;40968;52.342;5.528;2022-07-31T06:02:30;101512.09;;;19.48;62.27
43161;BME280;40968;52.342;5.528;2022-07-31T06:04:56;101632.88;;;20.17;62.81
43161;BME280;40968;52.342;5.528;2022-07-31T06:07:23;101605.88;;;19.98;62.49
43161;BME280;40968;52.342;5.528;2022-07-31T06:09:49;101440.06;;;18.89;62.73
43161;BME280;40968;52.342;5.528;2022-07-31T06:12:16;101638.31;;;20.17;62.70
43161;BME280;40968;52.342;5.528;2022-07-31T06:14:43;101620.38;;;20.07;63.00
43161;BME280;40968;52.342;5.528;2022-07-31T06:17:10;101568.56;;;19.72;62.95
43161;BME280;40968;52.342;5.528;2022-07-31T06:19:38;101633.59;;;20.19;63.01
43161;BME280;40968;52.342;5.528;2022-07-31T06:22:05;101626.13;;;20.21;62.56
43161;BME280;40968;52.342;5.528;2022-07-31T06:24:31;101623.41;;;20.21;62.96
43161;BME280;40968;52.342;5.528;2022-07-31T06:26:59;101632.25;;;20.24;62.47
43161;BME280;40968;52.342;5.528;2022-07-31T06:29:26;101635.84;;;20.24;62.88
43161;BME280;40968;52.342;5.528;2022-07-31T06:31:52;101570.44;;;19.90;62.82
43161;BME280;40968;52.342;5.528;2022-07-31T06:34:19;101635.69;;;20.26;62.65
43161;BME280;40968;52.342;5.528;2022-07-31T06:36:47;101586.50;;;20.01;62.56
43161;BME280;40968;52.342;5.528;2022-07-31T06:39:14;101626.50;;;20.27;62.59
43161;BME280;40968;52.342;5.528;2022-07-31T06:41:41;101513.41;;;19.62;62.62
43161;BME280;40968;52.342;5.528;2022-07-31T06:44:12;101580.44;;;20.07;62.79
43161;BME280;40968;52.342;5.528;2022-07-31T06:46:39;101637.81;;;20.40;62.61
43161;BME280;40968;52.342;5.528;2022-07-31T06:49:06;101576.78;;;20.16;62.91
43161;BME280;40968;52.342;5.528;2022-07-31T06:51:33;101586.91;;;20.06;63.03
43161;BME280;40968;52.342;5.528;2022-07-31T06:54:05;101589.34;;;20.17;62.83
43161;BME280;40968;52.342;5.528;2022-07-31T06:56:33;101542.94;;;19.93;63.20
43161;BME280;40968;52.342;5.528;2022-07-31T06:59:00;101510.75;;;19.70;63.45
43161;BME280;40968;52.342;5.528;2022-07-31T07:01:27;101628.28;;;20.36;63.46
43161;BME280;40968;52.342;5.528;2022-07-31T07:03:54;101393.59;;;18.93;63.93
43161;BME280;40968;52.342;5.528;2022-07-31T07:06:21;101501.16;;;19.58;64.14
43161;BME280;40968;52.342;5.528;2022-07-31T07:08:48;101478.16;;;19.52;63.89
43161;BME280;40968;52.342;5.528;2022-07-31T07:11:16;101559.97;;;20.03;64.22
43161;BME280;40968;52.342;5.528;2022-07-31T07:13:43;101585.59;;;20.18;64.33
43161;BME280;40968;52.342;5.528;2022-07-31T07:16:10;101611.88;;;20.28;64.67
43161;BME280;40968;52.342;5.528;2022-07-31T07:18:36;101548.75;;;19.98;64.26
43161;BME280;40968;52.342;5.528;2022-07-31T07:21:03;101598.97;;;20.30;64.78
43161;BME280;40968;52.342;5.528;2022-07-31T07:23:30;101595.28;;;20.39;65.39
43161;BME280;40968;52.342;5.528;2022-07-31T07:25:57;101549.19;;;20.11;65.34
43161;BME280;40968;52.342;5.528;2022-07-31T07:28:25;101624.63;;;20.53;65.37
43161;BME280;40968;52.342;5.528;2022-07-31T07:30:51;101526.63;;;19.93;65.75
43161;BME280;40968;52.342;5.528;2022-07-31T07:33:18;101471.84;;;19.69;65.71
43161;BME280;40968;52.342;5.528;2022-07-31T07:35:44;101616.50;;;20.62;65.93
43161;BME280;40968;52.342;5.528;2022-07-31T07:38:11;101616.88;;;20.67;65.96
43161;BME280;40968;52.342;5.528;2022-07-31T07:40:38;101590.81;;;20.64;66.13
43161;BME280;40968;52.342;5.528;2022-07-31T07:43:05;101576.97;;;20.49;66.26
43161;BME280;40968;52.342;5.528;2022-07-31T07:45:33;101589.66;;;20.67;66.41
43161;BME280;40968;52.342;5.528;2022-07-31T07:48:00;101601.31;;;20.77;66.06
43161;BME280;40968;52.342;5.528;2022-07-31T07:50:27;101607.75;;;20.76;66.46
43161;BME280;40968;52.342;5.528;2022-07-31T07:52:53;101426.09;;;19.65;66.72
43161;BME280;40968;52.342;5.528;2022-07-31T07:55:20;101608.09;;;20.73;66.78
43161;BME280;40968;52.342;5.528;2022-07-31T07:57:46;101284.94;;;18.75;66.17
43161;BME280;40968;52.342;5.528;2022-07-31T08:00:14;101602.25;;;20.68;66.84
43161;BME280;40968;52.342;5.528;2022-07-31T08:02:42;101547.94;;;20.32;67.07
43161;BME280;40968;52.342;5.528;2022-07-31T08:05:10;101584.44;;;20.47;67.15
43161;BME280;40968;52.342;5.528;2022-07-31T08:07:38;101577.78;;;20.42;67.01
43161;BME280;40968;52.342;5.528;2022-07-31T08:10:06;101426.75;;;19.59;66.70
43161;BME280;40968;52.342;5.528;2022-07-31T08:12:33;101558.34;;;20.36;66.94
43161;BME280;40968;52.342;5.528;2022-07-31T08:15:00;101572.50;;;20.40;66.67
43161;BME280;40968;52.342;5.528;2022-07-31T08:17:27;101540.59;;;20.24;67.27
43161;BME280;40968;52.342;5.528;2022-07-31T08:19:55;101416.50;;;19.52;67.07
43161;BME280;40968;52.342;5.528;2022-07-31T08:22:21;101600.53;;;20.67;67.50
43161;BME280;40968;52.342;5.528;2022-07-31T08:24:48;101431.69;;;19.63;67.83
43161;BME280;40968;52.342;5.528;2022-07-31T08:27:15;101563.00;;;20.44;68.25
43161;BME280;40968;52.342;5.528;2022-07-31T08:30:00;101599.69;;;20.66;68.97
43161;BME280;40968;52.342;5.528;2022-07-31T08:32:27;101605.47;;;20.63;68.45
43161;BME280;40968;52.342;5.528;2022-07-31T08:34:55;101600.88;;;20.64;69.03
43161;BME280;40968;52.342;5.528;2022-07-31T08:37:21;101611.06;;;20.62;69.02
43161;BME280;40968;52.342;5.528;2022-07-31T08:39:49;101562.25;;;20.34;69.19
43161;BME280;40968;52.342;5.528;2022-07-31T08:42:16;101562.25;;;20.34;69.45
43161;BME280;40968;52.342;5.528;2022-07-31T08:44:44;101505.91;;;20.00;69.45
43161;BME280;40968;52.342;5.528;2022-07-31T08:47:12;101571.13;;;20.36;70.00
43161;BME280;40968;52.342;5.528;2022-07-31T08:49:41;101565.34;;;20.39;70.53
43161;BME280;40968;52.342;5.528;2022-07-31T08:52:10;101550.31;;;20.27;70.59
43161;BME280;40968;52.342;5.528;2022-07-31T08:54:41;101506.91;;;19.99;70.16
43161;BME280;40968;52.342;5.528;2022-07-31T08:57:08;101559.34;;;20.35;70.36
43161;BME280;40968;52.342;5.528;2022-07-31T08:59:36;101525.31;;;20.05;70.51
43161;BME280;40968;52.342;5.528;2022-07-31T09:02:03;101607.41;;;20.71;70.02
43161;BME280;40968;52.342;5.528;2022-07-31T09:04:30;101607.94;;;20.75;70.49
43161;BME280;40968;52.342;5.528;2022-07-31T09:06:57;101557.94;;;20.58;70.57
43161;BME280;40968;52.342;5.528;2022-07-31T09:09:26;101591.34;;;20.94;70.69
43161;BME280;40968;52.342;5.528;2022-07-31T09:11:52;101314.44;;;19.32;70.33
43161;BME280;40968;52.342;5.528;2022-07-31T09:14:27;101514.72;;;20.54;70.26
43161;BME280;40968;52.342;5.528;2022-07-31T09:16:54;101298.28;;;19.30;70.51
43161;BME280;40968;52.342;5.528;2022-07-31T09:19:22;101575.06;;;21.11;70.33
43161;BME280;40968;52.342;5.528;2022-07-31T09:21:50;101290.19;;;19.38;69.46
43161;BME280;40968;52.342;5.528;2022-07-31T09:24:29;101599.13;;;21.32;69.78
43161;BME280;40968;52.342;5.528;2022-07-31T09:27:04;101541.75;;;20.91;69.37
43161;BME280;40968;52.342;5.528;2022-07-31T09:29:38;101600.13;;;21.31;69.42
43161;BME280;40968;52.342;5.528;2022-07-31T09:32:09;101595.38;;;21.33;68.83
43161;BME280;40968;52.342;5.528;2022-07-31T09:34:36;101359.34;;;19.97;69.22
43161;BME280;40968;52.342;5.528;2022-07-31T09:37:08;101593.00;;;21.38;69.27
43161;BME280;40968;52.342;5.528;2022-07-31T09:39:36;101575.59;;;21.23;68.91
43161;BME280;40968;52.342;5.528;2022-07-31T09:42:03;101469.09;;;20.57;68.74
43161;BME280;40968;52.342;5.528;2022-07-31T09:44:40;101567.72;;;21.19;69.25
43161;BME280;40968;52.342;5.528;2022-07-31T09:47:18;101587.88;;;21.35;69.16
43161;BME280;40968;52.342;5.528;2022-07-31T09:49:51;101392.22;;;20.20;69.87
43161;BME280;40968;52.342;5.528;2022-07-31T09:52:18;101567.22;;;21.16;69.29
43161;BME280;40968;52.342;5.528;2022-07-31T09:54:46;101535.31;;;21.00;69.27
43161;BME280;40968;52.342;5.528;2022-07-31T09:57:14;101593.69;;;21.40;68.94
43161;BME280;40968;52.342;5.528;2022-07-31T09:59:41;101562.28;;;21.19;68.99
43161;BME280;40968;52.342;5.528;2022-07-31T10:02:12;101587.22;;;21.41;69.03
43161;BME280;40968;52.342;5.528;2022-07-31T10:04:39;101584.13;;;21.44;69.58
43161;BME280;40968;52.342;5.528;2022-07-31T10:07:07;101501.28;;;21.04;69.35
43161;BME280;40968;52.342;5.528;2022-07-31T10:09:36;101473.34;;;20.94;69.71
43161;BME280;40968;52.342;5.528;2022-07-31T10:12:10;101500.78;;;21.17;69.29
43161;BME280;40968;52.342;5.528;2022-07-31T10:14:40;101460.56;;;20.94;68.93
43161;BME280;40968;52.342;5.528;2022-07-31T10:17:09;101529.97;;;21.33;68.84
43161;BME280;40968;52.342;5.528;2022-07-31T10:19:40;101546.84;;;21.45;69.56
43161;BME280;40968;52.342;5.528;2022-07-31T10:22:11;101488.34;;;21.14;68.48
43161;BME280;40968;52.342;5.528;2022-07-31T10:24:44;101540.53;;;21.52;68.80
43161;BME280;40968;52.342;5.528;2022-07-31T10:27:15;101561.38;;;21.62;69.29
43161;BME280;40968;52.342;5.528;2022-07-31T10:29:43;101561.88;;;21.65;70.11
43161;BME280;40968;52.342;5.528;2022-07-31T10:32:09;101562.38;;;21.61;70.62
43161;BME280;40968;52.342;5.528;2022-07-31T10:34:36;101535.25;;;21.43;70.79
43161;BME280;40968;52.342;5.528;2022-07-31T10:37:08;101566.78;;;21.53;71.33
43161;BME280;40968;52.342;5.528;2022-07-31T10:39:42;101467.50;;;20.80;71.10
43161;BME280;40968;52.342;5.528;2022-07-31T10:42:18;101543.91;;;21.30;71.02
43161;BME280;40968;52.342;5.528;2022-07-31T10:44:54;101538.28;;;21.31;71.21
43161;BME280;40968;52.342;5.528;2022-07-31T10:47:23;101515.81;;;21.21;71.20
43161;BME280;40968;52.342;5.528;2022-07-31T10:49:51;101528.91;;;21.26;70.63
43161;BME280;40968;52.342;5.528;2022-07-31T10:52:25;101487.28;;;20.91;70.62
43161;BME280;40968;52.342;5.528;2022-07-31T10:54:52;101562.66;;;21.33;70.65
43161;BME280;40968;52.342;5.528;2022-07-31T10:57:24;101549.34;;;21.22;70.73
43161;BME280;40968;52.342;5.528;2022-07-31T10:59:52;101484.53;;;20.82;71.10
43161;BME280;40968;52.342;5.528;2022-07-31T11:02:32;101530.25;;;21.13;71.31
43161;BME280;40968;52.342;5.528;2022-07-31T11:05:07;101554.13;;;21.28;71.00
43161;BME280;40968;52.342;5.528;2022-07-31T11:07:34;101548.34;;;21.23;71.13
43161;BME280;40968;52.342;5.528;2022-07-31T11:10:11;101479.44;;;20.79;71.07
43161;BME280;40968;52.342;5.528;2022-07-31T11:12:40;101529.88;;;21.00;71.55
43161;BME280;40968;52.342;5.528;2022-07-31T11:15:17;101501.41;;;20.86;71.83
43161;BME280;40968;52.342;5.528;2022-07-31T11:17:44;101549.84;;;21.17;71.98
43161;BME280;40968;52.342;5.528;2022-07-31T11:20:17;101550.53;;;21.11;72.22
43161;BME280;40968;52.342;5.528;2022-07-31T11:22:52;101357.75;;;19.86;72.33
43161;BME280;40968;52.342;5.528;2022-07-31T11:25:19;101409.75;;;20.17;72.59
43161;BME280;40968;52.342;5.528;2022-07-31T11:27:47;101540.63;;;21.01;72.75
43161;BME280;40968;52.342;5.528;2022-07-31T11:30:13;101488.22;;;20.65;72.78
43161;BME280;40968;52.342;5.528;2022-07-31T11:32:46;101476.59;;;20.54;72.92
43161;BME280;40968;52.342;5.528;2022-07-31T11:35:23;101543.66;;;20.90;72.92
43161;BME280;40968;52.342;5.528;2022-07-31T11:37:49;101468.72;;;20.43;73.14
43161;BME280;40968;52.342;5.528;2022-07-31T11:40:16;101511.69;;;20.66;72.96
43161;BME280;40968;52.342;5.528;2022-07-31T11:42:45;101495.50;;;20.56;73.17
43161;BME280;40968;52.342;5.528;2022-07-31T11:45:13;101540.53;;;20.77;72.74
43161;BME280;40968;52.342;5.528;2022-07-31T11:47:41;101548.78;;;20.67;73.13
43161;BME280;40968;52.342;5.528;2022-07-31T11:50:10;101364.72;;;19.62;73.33
43161;BME280;40968;52.342;5.528;2022-07-31T11:52:37;101534.34;;;20.66;73.19
43161;BME280;40968;52.342;5.528;2022-07-31T11:55:12;101495.78;;;20.45;73.82
43161;BME280;40968;52.342;5.528;2022-07-31T11:57:40;101538.25;;;20.64;73.75
43161;BME280;40968;52.342;5.528;2022-07-31T12:00:14;101524.72;;;20.54;73.74
43161;BME280;40968;52.342;5.528;2022-07-31T12:02:42;101521.50;;;20.50;74.50
43161;BME280;40968;52.342;5.528;2022-07-31T12:05:10;101495.00;;;20.26;74.66
43161;BME280;40968;52.342;5.528;2022-07-31T12:07:40;101502.03;;;20.37;74.68
43161;BME280;40968;52.342;5.528;2022-07-31T12:10:09;101481.91;;;20.21;74.76
43161;BME280;40968;52.342;5.528;2022-07-31T12:12:38;101333.38;;;19.42;75.05
43161;BME280;40968;52.342;5.528;2022-07-31T12:15:15;101544.34;;;20.66;75.17
43161;BME280;40968;52.342;5.528;2022-07-31T12:17:42;101420.47;;;19.84;74.87
43161;BME280;40968;52.342;5.528;2022-07-31T12:20:14;101524.38;;;20.49;75.30
43161;BME280;40968;52.342;5.528;2022-07-31T12:22:41;101552.84;;;20.54;75.19
43161;BME280;40968;52.342;5.528;2022-07-31T12:25:07;101533.06;;;20.52;75.66
43161;BME280;40968;52.342;5.528;2022-07-31T12:27:37;101506.09;;;20.33;75.74
43161;BME280;40968;52.342;5.528;2022-07-31T12:30:16;101502.03;;;20.37;75.76
43161;BME280;40968;52.342;5.528;2022-07-31T12:32:43;101532.41;;;20.50;76.15
43161;BME280;40968;52.342;5.528;2022-07-31T12:35:11;101456.31;;;20.06;76.33
43161;BME280;40968;52.342;5.528;2022-07-31T12:37:42;101529.34;;;20.53;76.35
43161;BME280;40968;52.342;5.528;2022-07-31T12:40:21;101509.91;;;20.48;76.36
43161;BME280;40968;52.342;5.528;2022-07-31T12:42:48;101528.28;;;20.81;75.83
43161;BME280;40968;52.342;5.528;2022-07-31T12:45:26;101485.00;;;20.69;75.34
43161;BME280;40968;52.342;5.528;2022-07-31T12:47:55;101519.31;;;20.97;75.23
43161;BME280;40968;52.342;5.528;2022-07-31T12:50:23;101462.66;;;20.66;74.34
43161;BME280;40968;52.342;5.528;2022-07-31T12:52:50;101472.47;;;20.85;74.17
43161;BME280;40968;52.342;5.528;2022-07-31T12:55:16;101450.50;;;20.78;73.27
43161;BME280;40968;52.342;5.528;2022-07-31T12:57:44;101484.94;;;21.12;72.80